createdAt,value
2017-09-17T07:25:11.890Z,604.00
2017-09-17T07:26:11.878Z,820.00
2017-09-17T07:27:11.867Z,760.00
2017-09-17T07:28:11.858Z,744.00
2017-09-17T07:29:11.850Z,700.00
2017-09-17T07:30:11.841Z,764.00
2017-09-17T07:31:11.834Z,768.00
2017-09-17T07:32:11.828Z,632.00
2017-09-17T08:01:30.108Z,1428.00
2017-09-17T08:02:27.478Z,4300.00
2017-09-17T08:03:23.382Z,2044.00
2017-09-17T08:04:23.373Z,1936.00
2017-09-17T08:35:40.317Z,5588.00
2017-09-17T08:36:40.301Z,5708.00
2017-09-17T08:37:40.288Z,5808.00
2017-09-17T08:38:40.274Z,5876.00
2017-09-17T08:39:40.262Z,6032.00
2017-09-17T08:40:40.249Z,6468.00
2017-09-17T08:41:40.241Z,6200.00
2017-09-17T08:42:40.230Z,6032.00
2017-09-17T08:43:40.221Z,5936.00
2017-09-17T08:44:40.211Z,5944.00
2017-09-17T08:45:40.200Z,5988.00
2017-09-17T08:46:40.193Z,20864.00
2017-09-17T08:47:40.188Z,49600.00
2017-09-17T08:48:40.179Z,54368.00
2017-09-17T08:49:40.173Z,33696.00
2017-09-17T08:50:40.170Z,27168.00
2017-09-17T08:51:40.160Z,27104.00
2017-09-17T08:52:40.157Z,26944.00
2017-09-17T08:53:40.150Z,26656.00
2017-09-17T08:55:12.221Z,27168.00
2017-09-17T08:56:12.222Z,27968.00
2017-09-17T08:57:12.218Z,27840.00
2017-09-17T08:58:12.217Z,28768.00
2017-09-17T08:59:12.219Z,28352.00
2017-09-17T09:00:12.220Z,23104.00
2017-09-17T09:01:12.219Z,29728.00
2017-09-17T09:02:12.223Z,30400.00
2017-09-17T09:03:12.225Z,29856.00
2017-09-17T09:04:12.228Z,29952.00
2017-09-17T09:05:12.233Z,30240.00
2017-09-17T09:06:12.235Z,29888.00
2017-09-17T09:07:12.241Z,28768.00
2017-09-17T09:08:12.247Z,30016.00
2017-09-17T09:09:12.252Z,30144.00
2017-09-17T09:10:12.256Z,30304.00
2017-09-17T09:11:12.266Z,29984.00
2017-09-17T09:12:12.272Z,29504.00
2017-09-17T09:13:12.277Z,29120.00
2017-09-17T09:14:12.286Z,29312.00
2017-09-17T09:15:12.294Z,29664.00
2017-09-17T09:16:12.302Z,28960.00
2017-09-17T09:17:12.310Z,29152.00
2017-09-17T09:18:12.319Z,28576.00
2017-09-17T09:19:12.328Z,28640.00
2017-09-17T09:20:12.339Z,29088.00
2017-09-17T09:21:12.347Z,29440.00
2017-09-17T09:22:12.357Z,29920.00
2017-09-17T09:23:12.367Z,31456.00
2017-09-17T09:24:12.378Z,32192.00
2017-09-17T09:25:12.386Z,34432.00
2017-09-17T09:26:12.400Z,40608.00
2017-09-17T09:27:12.408Z,46464.00
2017-09-17T09:28:12.420Z,49184.00
2017-09-17T09:29:12.464Z,48800.00
2017-09-17T09:30:12.444Z,49504.00
2017-09-17T09:31:12.453Z,43520.00
2017-09-17T09:32:12.465Z,40224.00
2017-09-17T09:33:12.476Z,41152.00
2017-09-17T09:34:12.488Z,15796.00
2017-09-17T09:35:12.500Z,38464.00
2017-09-17T09:36:12.511Z,39520.00
2017-09-17T09:37:12.523Z,35104.00
2017-09-17T09:38:12.535Z,38208.00
2017-09-17T09:39:12.547Z,40256.00
2017-09-17T09:40:12.559Z,33120.00
2017-09-17T09:41:12.569Z,34912.00
2017-09-17T09:42:12.581Z,33760.00
2017-09-17T09:43:12.595Z,34880.00
2017-09-17T09:44:12.606Z,34208.00
2017-09-17T09:45:12.619Z,32096.00
2017-09-17T09:46:12.629Z,32512.00
2017-09-17T09:47:12.642Z,32672.00
2017-09-17T09:48:12.653Z,32640.00
2017-09-17T09:49:12.666Z,32800.00
2017-09-17T09:50:12.678Z,35296.00
2017-09-17T09:51:12.690Z,35008.00
2017-09-17T09:52:12.703Z,34176.00
2017-09-17T09:53:12.714Z,34592.00
2017-09-17T09:54:12.726Z,34304.00
2017-09-17T09:55:12.739Z,34656.00
2017-09-17T09:56:12.751Z,36224.00
2017-09-17T09:57:12.764Z,37696.00
2017-09-17T09:58:12.777Z,35296.00
2017-09-17T09:59:12.788Z,34944.00
2017-09-17T10:00:12.801Z,35616.00
2017-09-17T10:01:12.812Z,8832.00
2017-09-17T10:02:12.826Z,8076.00
2017-09-17T10:03:12.837Z,38144.00
2017-09-17T10:04:12.851Z,12792.00
2017-09-17T10:05:12.862Z,6676.00
2017-09-17T10:06:12.874Z,34848.00
2017-09-17T10:07:12.886Z,41152.00
2017-09-17T10:08:12.898Z,44288.00
2017-09-17T10:09:12.909Z,9484.00
2017-09-17T10:10:12.920Z,7636.00
2017-09-17T10:11:12.932Z,7336.00
2017-09-17T10:12:12.944Z,8704.00
2017-09-17T10:13:12.952Z,6944.00
2017-09-17T10:14:12.964Z,7432.00
2017-09-17T10:15:12.974Z,14188.00
2017-09-17T10:16:12.984Z,10672.00
2017-09-17T10:17:12.995Z,35776.00
2017-09-17T10:18:13.003Z,67808.00
2017-09-17T10:19:13.013Z,61152.00
2017-09-17T10:20:13.022Z,51200.00
2017-09-17T10:21:13.032Z,38176.00
2017-09-17T10:22:13.040Z,42080.00
2017-09-17T10:23:13.050Z,38400.00
2017-09-17T10:24:13.059Z,36480.00
2017-09-17T10:25:13.067Z,36384.00
2017-09-17T10:26:13.075Z,33952.00
2017-09-17T10:27:13.085Z,29952.00
2017-09-17T10:28:13.102Z,16544.00
2017-09-17T10:29:13.105Z,12956.00
2017-09-17T10:30:13.113Z,10664.00
2017-09-17T10:31:13.123Z,15500.00
2017-09-17T10:32:13.133Z,9428.00
2017-09-17T10:33:13.143Z,10080.00
2017-09-17T10:34:13.153Z,7364.00
2017-09-17T10:35:13.161Z,6816.00
2017-09-17T10:36:13.172Z,7808.00
2017-09-17T10:37:13.180Z,13180.00
2017-09-17T10:38:13.190Z,8620.00
2017-09-17T10:39:13.200Z,7896.00
2017-09-17T10:40:13.206Z,7200.00
2017-09-17T10:41:13.215Z,10752.00
2017-09-17T10:42:13.221Z,8524.00
2017-09-17T10:43:13.230Z,6756.00
2017-09-17T10:44:13.238Z,6480.00
2017-09-17T10:45:13.246Z,5844.00
2017-09-17T10:46:13.252Z,5696.00
2017-09-17T10:47:13.260Z,6024.00
2017-09-17T10:48:13.268Z,7416.00
2017-09-17T10:49:13.272Z,8376.00
2017-09-17T10:50:13.279Z,8292.00
2017-09-17T10:51:13.287Z,8752.00
2017-09-17T10:52:13.292Z,8856.00
2017-09-17T10:53:13.298Z,8804.00
2017-09-17T10:54:13.304Z,9692.00
2017-09-17T10:55:13.314Z,10200.00
2017-09-17T10:56:13.317Z,10392.00
2017-09-17T10:57:13.320Z,10672.00
2017-09-17T10:58:13.327Z,9856.00
2017-09-17T10:59:13.331Z,11616.00
2017-09-17T11:00:13.338Z,10148.00
2017-09-17T11:01:13.342Z,9128.00
2017-09-17T11:02:13.346Z,7976.00
2017-09-17T11:03:13.353Z,7208.00
2017-09-17T11:04:13.357Z,7320.00
2017-09-17T11:05:13.362Z,7260.00
2017-09-17T11:06:13.367Z,7032.00
2017-09-17T11:07:13.370Z,7588.00
2017-09-17T11:08:13.376Z,7188.00
2017-09-17T11:09:13.379Z,6636.00
2017-09-17T11:10:13.383Z,6064.00
2017-09-17T11:11:13.389Z,5544.00
2017-09-17T11:12:13.392Z,5544.00
2017-09-17T11:13:13.397Z,7752.00
2017-09-17T11:14:13.400Z,7652.00
2017-09-17T11:15:13.405Z,5872.00
2017-09-17T11:16:13.409Z,5852.00
2017-09-17T11:17:13.411Z,5556.00
2017-09-17T11:18:13.416Z,5484.00
2017-09-17T11:19:13.420Z,5292.00
2017-09-17T11:20:13.425Z,5092.00
2017-09-17T11:21:13.427Z,4832.00
2017-09-17T11:22:13.430Z,4584.00
2017-09-17T11:23:13.433Z,4480.00
2017-09-17T11:24:13.439Z,4320.00
2017-09-17T11:25:13.440Z,4296.00
2017-09-17T11:26:13.444Z,4232.00
2017-09-17T11:27:13.446Z,4236.00
2017-09-17T11:28:13.449Z,4272.00
2017-09-17T11:29:13.452Z,4324.00
2017-09-17T11:30:13.454Z,4312.00
2017-09-17T11:31:13.459Z,4344.00
2017-09-17T11:32:13.460Z,4468.00
2017-09-17T11:33:13.465Z,4572.00
2017-09-17T11:34:13.471Z,4648.00
2017-09-17T11:35:13.469Z,4704.00
2017-09-17T11:36:13.471Z,4752.00
2017-09-17T11:37:13.472Z,4864.00
2017-09-17T11:38:13.476Z,4908.00
2017-09-17T11:39:13.479Z,4960.00
2017-09-17T11:40:13.480Z,5068.00
2017-09-17T11:41:13.486Z,5120.00
2017-09-17T11:42:13.487Z,5156.00
2017-09-17T11:43:13.487Z,5352.00
2017-09-17T11:44:13.491Z,5476.00
2017-09-17T11:45:13.491Z,5688.00
2017-09-17T11:46:13.494Z,5960.00
2017-09-17T11:47:13.496Z,6132.00
2017-09-17T11:48:13.500Z,6212.00
2017-09-17T11:49:13.500Z,6220.00
2017-09-17T11:50:13.502Z,6216.00
2017-09-17T11:51:13.504Z,6156.00
2017-09-17T11:52:13.508Z,6160.00
2017-09-17T11:53:13.507Z,6080.00
2017-09-17T11:54:13.511Z,5960.00
2017-09-17T11:55:13.512Z,5824.00
2017-09-17T11:56:13.515Z,5548.00
2017-09-17T11:57:13.522Z,5292.00
2017-09-17T11:58:13.520Z,5052.00
2017-09-17T11:59:13.521Z,4896.00
2017-09-17T12:00:13.524Z,4808.00
2017-09-17T12:01:13.526Z,4772.00
2017-09-17T12:02:13.528Z,4716.00
2017-09-17T12:03:13.529Z,4640.00
2017-09-17T12:04:13.533Z,4556.00
2017-09-17T12:05:13.533Z,4432.00
2017-09-17T12:06:13.536Z,4344.00
2017-09-17T12:07:13.539Z,4248.00
2017-09-17T12:08:13.540Z,4076.00
2017-09-17T12:09:13.543Z,3976.00
2017-09-17T12:10:13.546Z,3816.00
2017-09-17T12:11:13.547Z,3736.00
2017-09-17T12:12:13.549Z,3704.00
2017-09-17T12:13:13.548Z,3696.00
2017-09-17T12:14:13.549Z,3680.00
2017-09-17T12:15:13.553Z,3600.00
2017-09-17T12:16:13.556Z,3468.00
2017-09-17T12:17:13.555Z,3328.00
2017-09-17T12:18:13.557Z,3212.00
2017-09-17T12:19:13.559Z,3084.00
2017-09-17T12:20:13.560Z,2980.00
2017-09-17T12:21:13.561Z,2864.00
2017-09-17T12:22:13.564Z,2800.00
2017-09-17T12:23:13.565Z,2796.00
2017-09-17T12:24:13.566Z,2840.00
2017-09-17T12:25:13.567Z,2880.00
2017-09-17T12:26:13.569Z,2912.00
2017-09-17T12:27:13.570Z,2968.00
2017-09-17T12:28:13.573Z,3084.00
2017-09-17T12:29:13.571Z,3264.00
2017-09-17T12:30:13.573Z,3508.00
2017-09-17T12:31:13.577Z,3800.00
2017-09-17T12:32:13.578Z,4048.00
2017-09-17T12:33:13.577Z,4116.00
2017-09-17T12:34:13.577Z,4036.00
2017-09-17T12:35:13.580Z,3864.00
2017-09-17T12:36:13.581Z,3660.00
2017-09-17T12:37:13.582Z,3484.00
2017-09-17T12:38:13.583Z,3248.00
2017-09-17T12:39:13.584Z,2972.00
2017-09-17T12:40:13.586Z,2720.00
2017-09-17T12:41:13.585Z,2548.00
2017-09-17T12:42:13.587Z,2428.00
2017-09-17T12:43:13.587Z,2332.00
2017-09-17T12:44:13.587Z,2252.00
2017-09-17T12:45:13.587Z,2192.00
2017-09-17T12:46:13.588Z,2164.00
2017-09-17T12:47:13.590Z,2152.00
2017-09-17T12:48:13.591Z,2144.00
2017-09-17T12:49:13.589Z,2172.00
2017-09-17T12:50:13.593Z,2224.00
2017-09-17T12:51:13.592Z,2276.00
2017-09-17T12:52:13.593Z,2372.00
2017-09-17T12:53:13.593Z,2488.00
2017-09-17T12:54:13.594Z,2636.00
2017-09-17T12:55:13.594Z,2784.00
2017-09-17T12:56:13.594Z,2864.00
2017-09-17T12:57:13.592Z,2892.00
2017-09-17T12:58:13.594Z,2944.00
2017-09-17T12:59:13.594Z,3060.00
2017-09-17T13:00:13.595Z,3224.00
2017-09-17T13:01:13.594Z,3396.00
2017-09-17T13:02:13.594Z,3552.00
2017-09-17T13:03:13.596Z,3676.00
2017-09-17T13:04:13.600Z,3788.00
2017-09-17T13:05:13.595Z,3880.00
2017-09-17T13:06:13.595Z,3980.00
2017-09-17T13:07:13.595Z,4048.00
2017-09-17T13:08:13.596Z,4140.00
2017-09-17T13:09:13.597Z,4252.00
2017-09-17T13:10:13.595Z,4352.00
2017-09-17T13:11:13.595Z,4384.00
2017-09-17T13:12:13.595Z,4344.00
2017-09-17T13:13:13.594Z,4268.00
2017-09-17T13:14:13.593Z,4212.00
2017-09-17T13:15:13.595Z,4168.00
2017-09-17T13:16:13.594Z,4180.00
2017-09-17T13:17:13.600Z,4268.00
2017-09-17T13:18:13.594Z,4420.00
2017-09-17T13:19:13.594Z,4624.00
2017-09-17T13:20:13.596Z,4828.00
2017-09-17T13:21:13.594Z,5004.00
2017-09-17T13:22:13.594Z,5176.00
2017-09-17T13:23:13.595Z,5340.00
2017-09-17T13:24:13.596Z,5492.00
2017-09-17T13:25:13.595Z,5604.00
2017-09-17T13:26:13.595Z,5692.00
2017-09-17T13:27:13.594Z,5748.00
2017-09-17T13:28:13.595Z,5736.00
2017-09-17T13:29:13.595Z,5728.00
2017-09-17T13:30:13.597Z,5696.00
2017-09-17T13:31:13.595Z,5676.00
2017-09-17T13:32:13.596Z,5668.00
2017-09-17T13:33:13.596Z,5692.00
2017-09-17T13:34:13.596Z,5688.00
2017-09-17T13:35:13.602Z,5684.00
2017-09-17T13:36:13.598Z,5684.00
2017-09-17T13:37:13.598Z,5660.00
2017-09-17T13:38:13.600Z,5580.00
2017-09-17T13:39:13.601Z,5444.00
2017-09-17T13:40:13.600Z,5276.00
2017-09-17T13:41:13.599Z,5052.00
2017-09-17T13:42:13.599Z,4796.00
2017-09-17T13:43:13.602Z,4560.00
2017-09-17T13:44:13.604Z,4368.00
2017-09-17T13:45:13.602Z,4200.00
2017-09-17T13:46:13.603Z,4064.00
2017-09-17T13:47:13.605Z,3972.00
2017-09-17T13:48:13.604Z,3876.00
2017-09-17T13:49:13.605Z,3732.00
2017-09-17T13:50:13.605Z,3556.00
2017-09-17T13:51:13.606Z,3384.00
2017-09-17T13:52:13.608Z,3212.00
2017-09-17T13:53:13.607Z,3060.00
2017-09-17T13:54:13.607Z,2876.00
2017-09-17T13:55:13.608Z,2704.00
2017-09-17T13:56:13.610Z,2536.00
2017-09-17T13:57:13.609Z,2364.00
2017-09-17T13:58:13.616Z,2184.00
2017-09-17T13:59:13.611Z,2032.00
2017-09-17T14:00:13.612Z,1868.00
2017-09-17T14:01:13.637Z,1736.00
2017-09-17T14:02:13.612Z,1620.00
2017-09-17T14:03:13.612Z,1532.00
2017-09-17T14:04:13.612Z,1488.00
2017-09-17T14:05:13.624Z,1460.00
2017-09-17T14:06:13.613Z,1444.00
2017-09-17T14:07:13.612Z,1448.00
2017-09-17T14:08:13.614Z,1440.00
2017-09-17T14:09:13.612Z,1432.00
2017-09-17T14:10:13.612Z,1408.00
2017-09-17T14:11:13.612Z,1392.00
2017-09-17T14:12:13.612Z,1392.00
2017-09-17T14:13:13.612Z,1416.00
2017-09-17T14:14:13.613Z,1456.00
2017-09-17T14:15:13.612Z,1512.00
2017-09-17T14:16:13.617Z,1568.00
2017-09-17T14:17:13.611Z,1628.00
2017-09-17T14:18:13.611Z,1688.00
2017-09-17T14:19:13.611Z,1752.00
2017-09-17T14:20:13.610Z,1808.00
2017-09-17T14:21:13.613Z,1864.00
2017-09-17T14:22:13.609Z,1940.00
2017-09-17T14:23:13.611Z,2020.00
2017-09-17T14:24:13.609Z,2100.00
2017-09-17T14:25:13.607Z,2172.00
2017-09-17T14:26:13.609Z,2188.00
2017-09-17T14:27:13.607Z,2220.00
2017-09-17T14:28:13.608Z,2216.00
2017-09-17T14:29:13.606Z,2224.00
2017-09-17T14:30:13.606Z,2228.00
2017-09-17T14:31:13.607Z,2236.00
2017-09-17T14:32:13.605Z,2212.00
2017-09-17T14:33:13.604Z,2184.00
2017-09-17T14:34:13.604Z,2148.00
2017-09-17T14:35:13.607Z,2136.00
2017-09-17T14:36:13.602Z,2176.00
2017-09-17T14:37:13.607Z,2296.00
2017-09-17T14:38:13.604Z,2524.00
2017-09-17T14:39:13.600Z,2824.00
2017-09-17T14:40:13.601Z,3108.00
2017-09-17T14:41:13.598Z,3288.00
2017-09-17T14:42:13.598Z,3300.00
2017-09-17T14:43:13.596Z,3204.00
2017-09-17T14:44:13.599Z,3068.00
2017-09-17T14:45:13.593Z,2904.00
2017-09-17T14:46:13.594Z,2760.00
2017-09-17T14:47:13.595Z,2612.00
2017-09-17T14:48:13.593Z,2516.00
2017-09-17T14:49:13.592Z,2424.00
2017-09-17T14:50:13.590Z,2248.00
2017-09-17T14:51:13.589Z,2000.00
2017-09-17T14:52:13.589Z,1796.00
2017-09-17T14:53:13.587Z,1672.00
2017-09-17T14:54:13.593Z,1600.00
2017-09-17T14:55:13.585Z,1548.00
2017-09-17T14:56:13.586Z,1480.00
2017-09-17T14:57:13.582Z,1416.00
2017-09-17T14:58:13.583Z,1344.00
2017-09-17T14:59:13.582Z,1276.00
2017-09-17T15:00:13.580Z,1220.00
2017-09-17T15:01:13.579Z,1144.00
2017-09-17T15:02:13.578Z,1048.00
2017-09-17T15:03:13.577Z,944.00
2017-09-17T15:04:13.577Z,844.00
2017-09-17T15:05:13.574Z,772.00
2017-09-17T15:06:13.573Z,728.00
2017-09-17T15:07:13.580Z,712.00
2017-09-17T15:08:13.573Z,704.00
2017-09-17T15:09:13.569Z,704.00
2017-09-17T15:10:13.569Z,708.00
2017-09-17T15:11:13.568Z,712.00
2017-09-17T15:12:13.566Z,708.00
2017-09-17T15:13:13.567Z,704.00
2017-09-17T15:14:13.564Z,700.00
2017-09-17T15:15:13.562Z,692.00
2017-09-17T15:16:13.566Z,684.00
2017-09-17T15:17:13.559Z,680.00
2017-09-17T15:18:13.558Z,676.00
2017-09-17T15:19:13.557Z,668.00
2017-09-17T15:20:13.557Z,660.00
2017-09-17T15:21:13.554Z,660.00
2017-09-17T15:22:13.553Z,660.00
2017-09-17T15:23:13.553Z,660.00
2017-09-17T15:24:13.550Z,668.00
2017-09-17T15:25:13.548Z,680.00
2017-09-17T15:26:13.546Z,692.00
2017-09-17T15:27:13.546Z,712.00
2017-09-17T15:28:13.543Z,732.00
2017-09-17T15:29:13.541Z,752.00
2017-09-17T15:30:13.540Z,772.00
2017-09-17T15:31:13.537Z,784.00
2017-09-17T15:32:13.534Z,816.00
2017-09-17T15:33:13.533Z,844.00
2017-09-17T15:34:13.533Z,880.00
2017-09-17T15:35:13.529Z,924.00
2017-09-17T15:36:13.527Z,976.00
2017-09-17T15:37:13.525Z,1028.00
2017-09-17T15:38:13.524Z,1088.00
2017-09-17T15:39:13.520Z,1128.00
2017-09-17T15:40:13.519Z,1184.00
2017-09-17T15:41:13.516Z,1244.00
2017-09-17T15:42:13.515Z,1304.00
2017-09-17T15:43:13.511Z,1364.00
2017-09-17T15:44:13.509Z,1412.00
2017-09-17T15:45:13.509Z,1472.00
2017-09-17T15:46:13.504Z,1548.00
2017-09-17T15:47:13.501Z,1636.00
2017-09-17T15:48:13.499Z,1732.00
2017-09-17T15:49:13.496Z,1832.00
2017-09-17T15:50:13.495Z,1908.00
2017-09-17T15:51:13.491Z,1956.00
2017-09-17T15:52:13.489Z,1992.00
2017-09-17T15:53:13.519Z,2024.00
2017-09-17T15:54:13.482Z,2016.00
2017-09-17T15:55:13.484Z,2000.00
2017-09-17T15:56:13.478Z,1956.00
2017-09-17T15:57:13.474Z,1904.00
2017-09-17T15:58:13.472Z,1852.00
2017-09-17T15:59:13.469Z,1796.00
2017-09-17T16:00:13.465Z,1704.00
2017-09-17T16:01:13.463Z,1608.00
2017-09-17T16:02:13.460Z,1484.00
2017-09-17T16:03:13.458Z,1352.00
2017-09-17T16:04:13.456Z,1232.00
2017-09-17T16:05:13.452Z,1132.00
2017-09-17T16:06:13.450Z,1044.00
2017-09-17T16:07:13.449Z,968.00
2017-09-17T16:08:13.444Z,916.00
2017-09-17T16:09:13.441Z,892.00
2017-09-17T16:10:13.438Z,876.00
2017-09-17T16:11:13.435Z,868.00
2017-09-17T16:12:13.432Z,864.00
2017-09-17T16:13:13.428Z,856.00
2017-09-17T16:14:13.425Z,852.00
2017-09-17T16:15:13.425Z,844.00
2017-09-17T16:16:13.421Z,832.00
2017-09-17T16:17:13.418Z,820.00
2017-09-17T16:18:13.416Z,808.00
2017-09-17T16:19:13.412Z,796.00
2017-09-17T16:20:13.408Z,784.00
2017-09-17T16:21:13.410Z,772.00
2017-09-17T16:22:13.403Z,756.00
2017-09-17T16:23:13.402Z,752.00
2017-09-17T16:24:13.401Z,756.00
2017-09-17T16:25:13.395Z,756.00
2017-09-17T16:26:13.391Z,764.00
2017-09-17T16:27:13.389Z,764.00
2017-09-17T16:28:13.388Z,764.00
2017-09-17T16:29:13.382Z,756.00
2017-09-17T16:30:13.380Z,752.00
2017-09-17T16:31:13.378Z,744.00
2017-09-17T16:32:13.377Z,732.00
2017-09-17T16:33:13.370Z,716.00
2017-09-17T16:34:13.369Z,704.00
2017-09-17T16:35:13.364Z,688.00
2017-09-17T16:36:13.364Z,676.00
2017-09-17T16:37:13.360Z,672.00
2017-09-17T16:38:13.357Z,664.00
2017-09-17T16:39:13.356Z,660.00
2017-09-17T16:40:13.350Z,660.00
2017-09-17T16:41:13.347Z,660.00
2017-09-17T16:42:13.343Z,652.00
2017-09-17T16:43:13.344Z,644.00
2017-09-17T16:44:13.339Z,628.00
2017-09-17T16:45:13.334Z,612.00
2017-09-17T16:46:13.330Z,596.00
2017-09-17T16:47:13.329Z,572.00
2017-09-17T16:48:13.325Z,544.00
2017-09-17T16:49:13.320Z,520.00
2017-09-17T16:50:13.317Z,496.00
2017-09-17T16:51:13.312Z,476.00
2017-09-17T16:52:13.312Z,460.00
2017-09-17T16:53:13.306Z,440.00
2017-09-17T16:54:13.303Z,424.00
2017-09-17T16:55:13.300Z,404.00
2017-09-17T16:56:13.297Z,384.00
2017-09-17T16:57:13.298Z,364.00
2017-09-17T16:58:13.296Z,348.00
2017-09-17T16:59:13.285Z,332.00
2017-09-17T17:00:13.282Z,316.00
2017-09-17T17:01:13.280Z,308.00
2017-09-17T17:02:13.274Z,292.00
2017-09-17T17:03:13.270Z,288.00
2017-09-17T17:04:13.268Z,280.00
2017-09-17T17:05:13.264Z,268.00
2017-09-17T17:06:13.259Z,256.00
2017-09-17T17:07:13.258Z,240.00
2017-09-17T17:08:13.252Z,232.00
2017-09-17T17:09:13.248Z,224.00
2017-09-17T17:10:13.247Z,212.00
2017-09-17T17:11:13.240Z,204.00
2017-09-17T17:12:13.237Z,192.00
2017-09-17T17:13:13.233Z,180.00
2017-09-17T17:14:13.228Z,172.00
2017-09-17T17:15:13.225Z,164.00
2017-09-17T17:16:13.221Z,156.00
2017-09-17T17:17:13.216Z,152.00
2017-09-17T17:18:13.212Z,144.00
2017-09-17T17:19:13.209Z,140.00
2017-09-17T17:20:13.205Z,136.00
2017-09-17T17:21:13.201Z,128.00
2017-09-17T17:22:13.210Z,124.00
2017-09-17T17:23:13.193Z,120.00
2017-09-17T17:24:13.188Z,120.00
2017-09-17T17:25:13.190Z,116.00
2017-09-17T17:26:13.179Z,112.00
2017-09-17T17:27:13.177Z,108.00
2017-09-17T17:28:13.173Z,104.00
2017-09-17T17:29:13.168Z,100.00
2017-09-17T17:30:13.163Z,92.00
2017-09-17T17:31:13.160Z,84.00
2017-09-17T17:32:13.156Z,80.00
2017-09-17T17:33:13.154Z,72.00
2017-09-17T17:34:13.157Z,68.00
2017-09-17T17:35:13.146Z,68.00
2017-09-17T17:36:13.141Z,60.00
2017-09-17T17:37:13.141Z,56.00
2017-09-17T17:38:13.131Z,52.00
2017-09-17T17:39:13.128Z,52.00
2017-09-17T17:40:13.124Z,48.00
2017-09-17T17:41:13.120Z,40.00
2017-09-17T17:42:13.115Z,36.00
2017-09-17T17:43:13.112Z,32.00
2017-09-17T17:44:13.107Z,28.00
2017-09-17T17:45:13.104Z,28.00
2017-09-17T17:46:13.100Z,20.00
2017-09-17T17:47:13.095Z,20.00
2017-09-17T17:48:13.091Z,20.00
2017-09-17T17:49:13.087Z,12.00
2017-09-17T17:50:13.084Z,12.00
2017-09-17T17:51:13.078Z,12.00
2017-09-17T17:52:13.074Z,12.00
2017-09-17T17:53:13.069Z,12.00
2017-09-17T17:54:13.066Z,8.00
2017-09-17T17:55:13.062Z,8.00
2017-09-17T17:56:13.058Z,4.00
2017-09-17T17:57:13.058Z,8.00
2017-09-17T17:58:13.050Z,4.00
2017-09-17T17:59:13.074Z,4.00
2017-09-17T18:00:13.044Z,4.00
2017-09-17T18:01:13.036Z,4.00
2017-09-17T18:02:13.032Z,0.00
2017-09-17T18:03:13.028Z,4.00
2017-09-17T18:04:13.027Z,4.00
2017-09-17T18:05:13.021Z,0.00
2017-09-17T18:06:13.017Z,0.00
2017-09-17T18:07:13.012Z,0.00
2017-09-17T18:08:13.008Z,0.00
2017-09-17T18:09:13.005Z,0.00
2017-09-17T18:10:12.999Z,0.00
2017-09-17T18:11:12.996Z,0.00
2017-09-17T18:12:12.994Z,0.00
2017-09-17T18:13:12.989Z,0.00
2017-09-17T18:14:12.984Z,0.00
2017-09-17T18:15:12.980Z,0.00
2017-09-17T18:16:12.975Z,0.00
2017-09-17T18:17:12.971Z,0.00
2017-09-17T18:18:12.967Z,0.00
2017-09-17T18:19:12.962Z,0.00
2017-09-17T18:20:12.960Z,0.00
2017-09-17T18:21:12.955Z,0.00
2017-09-17T18:22:12.950Z,0.00
2017-09-17T18:23:12.950Z,0.00
2017-09-17T18:24:12.942Z,0.00
2017-09-17T18:25:12.938Z,0.00
2017-09-17T18:26:12.935Z,0.00
2017-09-17T18:27:12.930Z,0.00
2017-09-17T18:28:12.926Z,0.00
2017-09-17T18:29:12.921Z,0.00
2017-09-17T18:30:12.917Z,0.00
2017-09-17T18:31:12.916Z,0.00
2017-09-17T18:32:12.910Z,0.00
2017-09-17T18:33:12.906Z,0.00
2017-09-17T18:34:12.901Z,0.00
2017-09-17T18:35:12.899Z,0.00
2017-09-17T18:36:12.892Z,0.00
2017-09-17T18:37:12.888Z,0.00
2017-09-17T18:38:12.884Z,0.00
2017-09-17T18:39:12.881Z,0.00
2017-09-17T18:40:12.878Z,0.00
2017-09-17T18:41:12.872Z,0.00
2017-09-17T18:42:12.876Z,0.00
2017-09-17T18:43:12.865Z,0.00
2017-09-17T18:44:12.861Z,0.00
2017-09-17T18:45:12.857Z,0.00
2017-09-17T18:46:12.852Z,0.00
2017-09-17T18:47:12.848Z,0.00
2017-09-17T18:48:12.842Z,0.00
2017-09-17T18:49:12.840Z,0.00
2017-09-17T18:50:12.833Z,0.00
2017-09-17T18:51:12.830Z,0.00
2017-09-17T18:52:12.827Z,0.00
2017-09-17T18:53:12.821Z,0.00
2017-09-17T18:54:12.819Z,0.00
2017-09-17T18:55:12.812Z,0.00
2017-09-17T18:56:12.810Z,0.00
2017-09-17T18:57:12.804Z,0.00
2017-09-17T18:58:12.800Z,0.00
2017-09-17T18:59:12.796Z,0.00
2017-09-17T19:00:12.793Z,0.00
2017-09-17T19:01:12.787Z,0.00
2017-09-17T19:02:12.783Z,0.00
2017-09-17T19:03:12.781Z,0.00
2017-09-17T19:04:12.774Z,0.00
2017-09-17T19:05:12.770Z,0.00
2017-09-17T19:06:12.765Z,0.00
2017-09-17T19:07:12.761Z,0.00
2017-09-17T19:08:12.756Z,0.00
2017-09-17T19:09:12.752Z,0.00
2017-09-17T19:10:12.746Z,0.00
2017-09-17T19:11:12.742Z,0.00
2017-09-17T19:12:12.737Z,0.00
2017-09-17T19:13:12.733Z,0.00
2017-09-17T19:14:12.727Z,0.00
2017-09-17T19:15:12.724Z,0.00
2017-09-17T19:16:12.721Z,0.00
2017-09-17T19:17:12.714Z,0.00
2017-09-17T19:18:12.710Z,0.00
2017-09-17T19:19:12.705Z,0.00
2017-09-17T19:20:12.702Z,0.00
2017-09-17T19:21:12.695Z,0.00
2017-09-17T19:22:12.692Z,0.00
2017-09-17T19:23:12.686Z,0.00
2017-09-17T19:24:12.683Z,0.00
2017-09-17T19:25:12.678Z,0.00
2017-09-17T19:26:12.672Z,0.00
2017-09-17T19:27:12.667Z,0.00
2017-09-17T19:28:12.661Z,0.00
2017-09-17T19:29:12.656Z,0.00
2017-09-17T19:30:12.653Z,0.00
2017-09-17T19:31:12.647Z,0.00
2017-09-17T19:32:12.643Z,0.00
2017-09-17T19:33:12.636Z,0.00
2017-09-17T19:34:12.631Z,0.00
2017-09-17T19:35:12.626Z,0.00
2017-09-17T19:36:12.622Z,0.00
2017-09-17T19:37:12.616Z,0.00
2017-09-17T19:38:12.610Z,0.00
2017-09-17T19:39:12.605Z,0.00
2017-09-17T19:40:12.601Z,0.00
2017-09-17T19:41:12.594Z,0.00
2017-09-17T19:42:12.589Z,0.00
2017-09-17T19:43:12.585Z,0.00
2017-09-17T19:44:12.580Z,0.00
2017-09-17T19:45:12.576Z,0.00
2017-09-17T19:46:12.568Z,0.00
2017-09-17T19:47:12.563Z,0.00
2017-09-17T19:48:12.559Z,0.00
2017-09-17T19:49:12.551Z,0.00
2017-09-17T19:50:12.547Z,0.00
2017-09-17T19:51:12.542Z,0.00
2017-09-17T19:52:12.536Z,0.00
2017-09-17T19:53:12.529Z,0.00
2017-09-17T19:54:12.525Z,0.00
2017-09-17T19:55:12.521Z,0.00
2017-09-17T19:56:12.516Z,0.00
2017-09-17T19:57:12.507Z,0.00
2017-09-17T19:58:12.502Z,0.00
2017-09-17T19:59:12.497Z,0.00
2017-09-17T20:00:12.493Z,0.00
2017-09-17T20:01:12.485Z,0.00
2017-09-17T20:02:12.480Z,0.00
2017-09-17T20:03:12.475Z,0.00
2017-09-17T20:04:12.470Z,0.00
2017-09-17T20:05:12.462Z,0.00
2017-09-17T20:06:12.456Z,0.00
2017-09-17T20:07:12.452Z,0.00
2017-09-17T20:08:12.446Z,0.00
2017-09-17T20:09:12.439Z,0.00
2017-09-17T20:10:12.435Z,0.00
2017-09-17T20:11:12.429Z,0.00
2017-09-17T20:12:12.423Z,0.00
2017-09-17T20:13:12.417Z,0.00
2017-09-17T20:14:12.417Z,0.00
2017-09-17T20:15:12.406Z,0.00
2017-09-17T20:16:12.401Z,0.00
2017-09-17T20:17:12.394Z,0.00
2017-09-17T20:18:12.388Z,0.00
2017-09-17T20:19:12.383Z,0.00
2017-09-17T20:20:12.376Z,0.00
2017-09-17T20:21:12.370Z,0.00
2017-09-17T20:22:12.364Z,0.00
2017-09-17T20:23:12.359Z,0.00
2017-09-17T20:24:12.353Z,0.00
2017-09-17T20:25:12.346Z,0.00
2017-09-17T20:26:12.341Z,0.00
2017-09-17T20:27:12.335Z,0.00
2017-09-17T20:28:12.328Z,0.00
2017-09-17T20:29:12.323Z,0.00
2017-09-17T20:30:12.317Z,0.00
2017-09-17T20:31:12.312Z,0.00
2017-09-17T20:32:12.306Z,0.00
2017-09-17T20:33:12.308Z,0.00
2017-09-17T20:34:12.294Z,0.00
2017-09-17T20:35:12.287Z,0.00
2017-09-17T20:36:12.282Z,0.00
2017-09-17T20:37:12.275Z,0.00
2017-09-17T20:38:12.269Z,0.00
2017-09-17T20:39:12.264Z,0.00
2017-09-17T20:40:12.258Z,0.00
2017-09-17T20:41:12.252Z,0.00
2017-09-17T20:42:12.246Z,0.00
2017-09-17T20:43:12.240Z,0.00
2017-09-17T20:44:12.233Z,0.00
2017-09-17T20:45:12.228Z,0.00
2017-09-17T20:46:12.221Z,0.00
2017-09-17T20:47:12.215Z,0.00